createdAt,value
2018-07-25T00:02:08.331Z,5.40
2018-07-25T00:04:39.637Z,5.22
2018-07-25T00:07:09.947Z,5.17
2018-07-25T00:09:40.301Z,5.00
2018-07-25T00:12:10.720Z,5.03
2018-07-25T00:14:41.060Z,5.37
2018-07-25T00:17:11.296Z,4.92
2018-07-25T00:19:41.973Z,5.33
2018-07-25T00:22:12.359Z,5.30
2018-07-25T00:24:42.655Z,5.00
2018-07-25T00:27:12.920Z,5.17
2018-07-25T00:29:43.320Z,4.80
2018-07-25T00:32:13.521Z,5.50
2018-07-25T00:34:43.795Z,5.40
2018-07-25T00:37:14.040Z,5.40
2018-07-25T00:39:44.718Z,5.10
2018-07-25T00:42:14.932Z,5.17
2018-07-25T00:44:45.200Z,5.20
2018-07-25T00:47:15.481Z,5.30
2018-07-25T00:49:45.707Z,5.17
2018-07-25T00:52:15.422Z,5.15
2018-07-25T00:54:45.191Z,5.50
2018-07-25T00:57:15.478Z,5.50
2018-07-25T00:59:45.756Z,5.50
2018-07-25T01:02:16.097Z,5.50
2018-07-25T01:04:46.274Z,5.45
2018-07-25T01:07:16.525Z,5.75
2018-07-25T01:09:47.307Z,6.12
2018-07-25T01:12:17.623Z,5.60
2018-07-25T01:14:47.873Z,5.90
2018-07-25T01:17:18.216Z,5.80
2018-07-25T01:19:48.612Z,5.62
2018-07-25T01:22:18.832Z,5.65
2018-07-25T01:24:48.980Z,5.70
2018-07-25T01:27:19.353Z,5.62
2018-07-25T01:29:49.627Z,5.80
2018-07-25T01:32:20.045Z,5.78
2018-07-25T01:34:50.423Z,5.90
2018-07-25T01:37:20.811Z,5.72
2018-07-25T01:39:52.418Z,5.90
2018-07-25T01:42:22.948Z,5.92
2018-07-25T01:44:53.221Z,6.30
2018-07-25T01:47:23.555Z,5.78
2018-07-25T01:49:53.852Z,5.55
2018-07-25T01:52:25.132Z,5.92
2018-07-25T01:54:55.614Z,5.90
2018-07-25T01:57:26.321Z,6.35
2018-07-25T01:59:57.923Z,5.78
2018-07-25T02:02:29.416Z,6.22
2018-07-25T02:04:59.703Z,6.45
2018-07-25T02:07:30.078Z,6.17
2018-07-25T02:10:00.902Z,6.35
2018-07-25T02:12:31.221Z,6.40
2018-07-25T02:15:01.488Z,6.20
2018-07-25T02:17:31.775Z,6.30
2018-07-25T02:20:02.016Z,6.50
2018-07-25T02:22:32.295Z,6.20
2018-07-25T02:25:02.529Z,6.35
2018-07-25T02:27:32.845Z,5.90
2018-07-25T02:30:03.074Z,6.30
2018-07-25T02:32:33.371Z,6.22
2018-07-25T02:35:03.564Z,6.50
2018-07-25T02:37:33.966Z,6.20
2018-07-25T02:40:04.267Z,6.15
2018-07-25T02:42:34.527Z,6.50
2018-07-25T02:45:04.734Z,6.30
2018-07-25T02:47:34.875Z,6.30
2018-07-25T02:50:05.728Z,6.12
2018-07-25T02:52:35.928Z,6.40
2018-07-25T02:55:06.552Z,6.45
2018-07-25T02:57:36.713Z,6.30
2018-07-25T03:00:07.843Z,6.15
2018-07-25T03:02:37.978Z,6.30
2018-07-25T03:05:08.295Z,6.45
2018-07-25T03:07:38.500Z,6.45
2018-07-25T03:11:33.049Z,6.45
2018-07-25T03:14:03.175Z,6.35
2018-07-25T03:16:33.949Z,5.97
2018-07-25T03:19:04.080Z,6.20
2018-07-25T03:21:34.274Z,6.58
2018-07-25T03:24:04.708Z,6.10
2018-07-25T03:26:34.937Z,6.30
2018-07-25T03:29:05.191Z,6.47
2018-07-25T03:31:35.108Z,6.17
2018-07-25T03:34:05.133Z,6.08
2018-07-25T03:36:35.261Z,6.22
2018-07-25T03:39:06.892Z,6.03
2018-07-25T03:41:37.294Z,6.20
2018-07-25T03:44:07.367Z,6.60
2018-07-25T03:46:37.419Z,6.15
2018-07-25T03:49:07.441Z,6.30
2018-07-25T03:51:37.536Z,6.12
2018-07-25T03:54:07.702Z,6.37
2018-07-25T03:56:37.771Z,6.00
2018-07-25T03:59:07.884Z,5.85
2018-07-25T04:01:38.000Z,6.30
2018-07-25T04:04:08.046Z,5.90
2018-07-25T04:06:38.155Z,5.97
2018-07-25T04:09:10.296Z,5.63
2018-07-25T04:11:40.385Z,5.87
2018-07-25T04:14:10.432Z,6.03
2018-07-25T04:16:40.994Z,5.62
2018-07-25T04:19:11.085Z,5.97
2018-07-25T04:21:41.212Z,5.97
2018-07-25T04:24:11.310Z,6.22
2018-07-25T04:26:41.543Z,6.00
2018-07-25T04:48:42.397Z,6.08
2018-07-25T04:51:12.411Z,6.08
2018-07-25T04:53:42.408Z,6.20
2018-07-25T04:56:12.600Z,5.83
2018-07-25T04:58:42.203Z,6.12
2018-07-25T05:01:12.225Z,6.40
2018-07-25T05:03:42.257Z,6.00
2018-07-25T05:06:12.282Z,6.00
2018-07-25T05:08:42.465Z,6.20
2018-07-25T05:11:12.526Z,6.30
2018-07-25T05:13:42.501Z,6.15
2018-07-25T05:16:12.559Z,5.90
2018-07-25T05:18:42.575Z,6.17
2018-07-25T05:21:12.578Z,5.95
2018-07-25T05:23:42.585Z,5.80
2018-07-25T05:26:12.634Z,5.60
2018-07-25T05:28:42.699Z,6.00
2018-07-25T05:31:12.725Z,5.87
2018-07-25T05:33:42.791Z,5.83
2018-07-25T05:36:12.898Z,5.78
2018-07-25T05:38:44.974Z,5.78
2018-07-25T05:41:15.172Z,5.62
2018-07-25T05:43:45.345Z,5.60
2018-07-25T05:46:15.387Z,5.80
2018-07-25T05:48:45.504Z,5.60
2018-07-25T05:51:15.567Z,5.47
2018-07-25T05:53:46.448Z,5.27
2018-07-25T05:56:16.610Z,5.72
2018-07-25T05:58:47.038Z,5.40
2018-07-25T06:01:17.161Z,5.78
2018-07-25T06:03:47.250Z,5.70
2018-07-25T06:06:17.383Z,5.70
2018-07-25T06:08:47.492Z,5.47
2018-07-25T06:11:17.589Z,5.40
2018-07-25T06:13:47.747Z,5.55
2018-07-25T06:16:17.981Z,5.80
2018-07-25T06:18:47.728Z,5.35
2018-07-25T06:21:17.790Z,5.30
2018-07-25T06:23:47.905Z,5.53
2018-07-25T06:26:17.922Z,5.00
2018-07-25T06:28:48.060Z,5.03
2018-07-25T06:31:18.218Z,5.35
2018-07-25T06:33:48.304Z,5.10
2018-07-25T06:36:18.416Z,5.10
2018-07-25T06:38:48.532Z,5.20
2018-07-25T06:41:18.617Z,4.90
2018-07-25T06:43:48.742Z,4.95
2018-07-25T06:46:19.013Z,5.00
2018-07-25T06:48:49.122Z,4.70
2018-07-25T06:51:19.158Z,5.17
2018-07-25T06:53:49.252Z,5.05
2018-07-25T06:56:19.316Z,5.17
2018-07-25T06:58:49.385Z,5.53
2018-07-25T07:01:19.428Z,5.53
2018-07-25T07:03:49.635Z,5.10
2018-07-25T07:06:19.747Z,5.00
2018-07-25T07:08:49.856Z,4.62
2018-07-25T07:11:19.807Z,4.70
2018-07-25T07:13:50.246Z,4.37
2018-07-25T07:16:20.393Z,4.30
2018-07-25T07:18:50.514Z,4.40
2018-07-25T07:21:20.610Z,4.10
2018-07-25T07:23:50.681Z,4.22
2018-07-25T07:26:20.798Z,4.12
2018-07-25T07:28:50.902Z,4.13
2018-07-25T07:31:21.047Z,4.10
2018-07-25T07:33:51.109Z,4.33
2018-07-25T07:36:21.136Z,4.00
2018-07-25T07:38:51.250Z,4.08
2018-07-25T07:41:21.383Z,4.22
2018-07-25T07:43:51.455Z,4.17
2018-07-25T07:46:21.558Z,4.17
2018-07-25T07:48:51.682Z,4.10
2018-07-25T07:51:21.731Z,3.90
2018-07-25T07:53:51.476Z,4.00
2018-07-25T07:56:21.062Z,3.83
2018-07-25T07:58:51.160Z,3.85
2018-07-25T08:01:21.251Z,3.90
2018-07-25T08:03:51.390Z,3.80
2018-07-25T08:06:21.496Z,3.80
2018-07-25T08:08:51.686Z,3.98
2018-07-25T08:11:21.435Z,3.42
2018-07-25T08:13:51.763Z,4.03
2018-07-25T08:16:21.811Z,4.17
2018-07-25T08:18:51.878Z,3.77
2018-07-25T08:21:21.898Z,3.70
2018-07-25T08:23:51.991Z,3.98
2018-07-25T08:26:22.084Z,3.98
2018-07-25T08:28:52.174Z,3.92
2018-07-25T08:31:21.793Z,3.90
2018-07-25T08:33:51.441Z,3.90
2018-07-25T08:36:21.451Z,3.95
2018-07-25T08:38:51.565Z,3.90
2018-07-25T08:41:21.714Z,3.80
2018-07-25T08:43:51.842Z,3.90
2018-07-25T08:46:21.939Z,3.93
2018-07-25T08:48:52.034Z,3.70
2018-07-25T08:51:21.688Z,3.90
2018-07-25T08:53:51.820Z,4.07
2018-07-25T08:56:21.984Z,3.92
2018-07-25T08:58:51.647Z,4.00
2018-07-25T09:01:22.066Z,3.70
2018-07-25T09:03:52.159Z,3.80
2018-07-25T09:06:21.859Z,4.00
2018-07-25T09:08:51.988Z,3.92
2018-07-25T09:11:28.415Z,3.40
2018-07-25T09:13:58.970Z,3.85
2018-07-25T09:16:29.082Z,3.62
2018-07-25T09:18:59.217Z,3.95
2018-07-25T09:21:29.911Z,4.20
2018-07-25T09:23:59.965Z,3.72
2018-07-25T09:26:30.070Z,3.80
2018-07-25T09:29:00.272Z,3.80
2018-07-25T09:31:30.463Z,3.73
2018-07-25T09:34:00.177Z,3.62
2018-07-25T09:36:30.223Z,3.90
2018-07-25T09:39:00.298Z,4.10
2018-07-25T09:41:30.478Z,4.17
2018-07-25T09:44:00.625Z,4.00
2018-07-25T09:46:30.755Z,3.90
2018-07-25T09:49:00.849Z,4.10
2018-07-25T09:51:30.988Z,3.70
2018-07-25T09:54:01.083Z,4.00
2018-07-25T09:56:31.779Z,3.95
2018-07-25T09:59:02.192Z,4.10
2018-07-25T10:01:32.367Z,4.00
2018-07-25T10:04:02.491Z,3.90
2018-07-25T10:06:32.682Z,4.12
2018-07-25T10:09:02.913Z,4.30
2018-07-25T10:11:33.090Z,4.33
2018-07-25T10:14:03.175Z,4.22
2018-07-25T10:16:33.515Z,4.10
2018-07-25T10:19:03.749Z,4.60
2018-07-25T10:21:33.850Z,4.00
2018-07-25T10:24:03.960Z,4.10
2018-07-25T10:26:33.634Z,4.30
2018-07-25T10:29:03.815Z,4.37
2018-07-25T10:31:33.948Z,4.30
2018-07-25T10:34:04.093Z,4.58
2018-07-25T10:36:34.320Z,4.47
2018-07-25T10:39:06.624Z,4.67
2018-07-25T10:41:36.747Z,4.23
2018-07-25T10:44:08.405Z,4.50
2018-07-25T10:46:43.038Z,4.27
2018-07-25T10:49:13.090Z,4.50
2018-07-25T10:51:43.194Z,4.58
2018-07-25T10:54:13.255Z,4.27
2018-07-25T10:56:43.394Z,4.30
2018-07-25T10:59:13.531Z,4.22
2018-07-25T11:01:43.687Z,4.20
2018-07-25T11:04:13.406Z,4.40
2018-07-25T11:06:43.530Z,4.30
2018-07-25T11:09:13.193Z,4.30
2018-07-25T11:11:43.368Z,4.40
2018-07-25T11:14:13.447Z,4.30
2018-07-25T11:16:43.552Z,4.25
2018-07-25T11:19:13.747Z,4.12
2018-07-25T11:21:43.820Z,4.50
2018-07-25T11:24:14.042Z,4.00
2018-07-25T11:26:44.153Z,3.85
2018-07-25T11:29:14.701Z,4.10
2018-07-25T11:31:44.962Z,4.00
2018-07-25T11:34:19.913Z,3.95
2018-07-25T11:36:50.086Z,3.77
2018-07-25T11:39:20.163Z,3.98
2018-07-25T11:41:50.403Z,4.00
2018-07-25T11:44:20.540Z,3.87
2018-07-25T11:46:50.721Z,4.00
2018-07-25T11:49:21.174Z,4.10
2018-07-25T11:51:51.935Z,3.83
2018-07-25T11:54:22.385Z,4.60
2018-07-25T11:56:52.554Z,4.03
2018-07-25T11:59:23.306Z,4.30
2018-07-25T12:01:53.523Z,4.08
2018-07-25T12:04:24.052Z,4.03
2018-07-25T12:06:54.562Z,4.10
2018-07-25T12:09:24.883Z,4.03
2018-07-25T12:11:55.301Z,3.60
2018-07-25T12:14:25.775Z,3.62
2018-07-25T12:16:55.959Z,3.73
2018-07-25T12:19:26.371Z,3.87
2018-07-25T12:21:56.948Z,3.80
2018-07-25T12:24:28.297Z,4.20
2018-07-25T12:26:59.430Z,3.70
2018-07-25T12:29:29.573Z,4.20
2018-07-25T12:32:00.269Z,3.95
2018-07-25T12:34:30.530Z,4.60
2018-07-25T12:37:00.856Z,4.10
2018-07-25T12:39:30.958Z,4.00
2018-07-25T12:42:01.145Z,4.20
2018-07-25T12:44:32.030Z,4.00
2018-07-25T12:47:02.436Z,4.23
2018-07-25T12:49:32.767Z,3.70
2018-07-25T12:52:03.201Z,3.97
2018-07-25T12:54:33.564Z,4.03
2018-07-25T12:57:03.876Z,3.90
2018-07-25T12:59:34.214Z,3.70
2018-07-25T13:02:04.597Z,3.80
2018-07-25T13:04:34.880Z,3.90
2018-07-25T13:07:05.242Z,3.43
2018-07-25T13:09:35.714Z,3.60
2018-07-25T13:12:06.065Z,3.33
2018-07-25T13:14:36.224Z,3.35
2018-07-25T13:17:06.556Z,3.40
2018-07-25T13:19:37.442Z,3.47
2018-07-25T13:22:11.710Z,3.30
2018-07-25T13:24:43.416Z,3.42
2018-07-25T13:27:13.584Z,3.40
2018-07-25T13:29:43.728Z,3.17
2018-07-25T13:32:13.900Z,3.10
2018-07-25T13:34:44.072Z,3.33
2018-07-25T13:37:14.163Z,3.02
2018-07-25T13:39:44.695Z,3.00
2018-07-25T13:42:15.563Z,3.00
2018-07-25T13:44:45.887Z,2.80
2018-07-25T13:47:17.760Z,2.93
2018-07-25T13:49:47.857Z,3.25
2018-07-25T13:52:18.172Z,3.20
2018-07-25T13:54:48.444Z,3.08
2018-07-25T13:57:18.582Z,3.27
2018-07-25T13:59:48.916Z,3.27
2018-07-25T14:02:19.284Z,2.90
2018-07-25T14:04:49.445Z,3.12
2018-07-25T14:07:19.627Z,3.10
2018-07-25T14:09:50.526Z,2.95
2018-07-25T14:12:20.853Z,3.07
2018-07-25T14:14:52.704Z,3.00
2018-07-25T14:17:22.976Z,2.90
2018-07-25T14:19:53.916Z,2.80
2018-07-25T14:22:26.323Z,2.75
2018-07-25T14:24:56.859Z,2.90
2018-07-25T14:27:27.156Z,2.90
2018-07-25T14:29:57.320Z,3.10
2018-07-25T14:32:27.542Z,3.27
2018-07-25T14:34:57.648Z,3.50
2018-07-25T14:37:27.871Z,3.50
2018-07-25T14:39:57.822Z,3.50
2018-07-25T14:42:27.954Z,3.50
2018-07-25T14:44:58.122Z,4.03
2018-07-25T14:47:29.084Z,3.72
2018-07-25T14:49:59.905Z,4.15
2018-07-25T14:52:30.230Z,3.80
2018-07-25T14:55:00.397Z,3.72
2018-07-25T14:57:30.579Z,3.95
2018-07-25T15:00:00.910Z,4.05
2018-07-25T15:02:31.082Z,4.08
2018-07-25T15:05:01.258Z,4.07
2018-07-25T15:07:31.482Z,4.10
2018-07-25T15:10:01.656Z,3.75
2018-07-25T15:12:36.807Z,3.72
2018-07-25T15:15:07.213Z,3.80
2018-07-25T15:17:37.313Z,3.90
2018-07-25T15:20:09.481Z,3.60
2018-07-25T15:22:40.302Z,3.50
2018-07-25T15:25:10.663Z,3.87
2018-07-25T15:27:40.895Z,3.65
2018-07-25T15:30:12.271Z,3.70
2018-07-25T15:32:42.537Z,3.37
2018-07-25T15:35:12.708Z,3.70
2018-07-25T15:37:43.044Z,3.70
2018-07-25T15:40:13.431Z,3.65
2018-07-25T15:42:43.568Z,3.70
2018-07-25T15:45:13.758Z,3.45
2018-07-25T15:47:43.923Z,3.50
2018-07-25T15:50:14.216Z,3.70
2018-07-25T15:52:44.392Z,3.30
2018-07-25T15:55:14.509Z,3.50
2018-07-25T15:57:44.730Z,3.40
2018-07-25T16:00:14.893Z,3.45
2018-07-25T16:02:45.173Z,3.30
2018-07-25T16:05:15.380Z,3.10
2018-07-25T16:07:45.465Z,3.27
2018-07-25T16:10:15.652Z,3.60
2018-07-25T16:12:45.366Z,3.55
2018-07-25T16:15:15.538Z,3.27
2018-07-25T16:17:45.630Z,3.42
2018-07-25T16:20:15.783Z,3.60
2018-07-25T16:22:45.902Z,3.60
2018-07-25T16:25:15.966Z,3.47
2018-07-25T16:27:46.096Z,3.67
2018-07-25T16:30:16.295Z,3.58
2018-07-25T16:32:46.355Z,3.23
2018-07-25T16:35:16.446Z,3.40
2018-07-25T16:37:46.534Z,3.15
2018-07-25T16:40:16.707Z,3.45
2018-07-25T16:42:46.763Z,3.37
2018-07-25T16:45:17.294Z,3.30
2018-07-25T16:47:47.376Z,3.20
2018-07-25T16:50:17.449Z,3.58
2018-07-25T16:52:47.590Z,3.30
2018-07-25T16:55:17.901Z,3.27
2018-07-25T16:57:48.297Z,3.67
2018-07-25T17:00:18.246Z,3.00
2018-07-25T17:02:58.998Z,3.55
2018-07-25T17:05:29.272Z,3.23
2018-07-25T17:07:59.355Z,3.37
2018-07-25T17:10:29.515Z,3.30
2018-07-25T17:12:59.703Z,4.50
2018-07-25T17:15:29.828Z,3.80
2018-07-25T17:17:59.945Z,4.92
2018-07-25T17:20:30.155Z,4.70
2018-07-25T17:23:00.229Z,3.65
2018-07-25T17:25:30.315Z,4.08
2018-07-25T17:28:00.394Z,3.15
2018-07-25T17:30:30.475Z,3.30
2018-07-25T17:33:00.575Z,3.20
2018-07-25T17:35:30.724Z,2.70
2018-07-25T17:38:00.833Z,2.72
2018-07-25T17:40:31.114Z,2.97
2018-07-25T17:43:01.646Z,2.70
2018-07-25T17:45:31.891Z,2.45
2018-07-25T17:48:02.122Z,2.50
2018-07-25T17:50:31.819Z,2.70
2018-07-25T17:53:01.966Z,2.45
2018-07-25T17:55:32.385Z,2.60
2018-07-25T17:58:02.690Z,2.85
2018-07-25T18:00:32.751Z,2.60
2018-07-25T18:03:03.076Z,2.90
2018-07-25T18:05:32.729Z,2.70
2018-07-25T18:08:03.031Z,2.87
2018-07-25T18:10:33.073Z,3.08
2018-07-25T18:13:08.416Z,2.70
2018-07-25T18:15:38.515Z,2.52
2018-07-25T18:18:08.855Z,2.80
2018-07-25T18:20:39.017Z,2.83
2018-07-25T18:23:09.317Z,2.80
2018-07-25T18:25:39.718Z,2.60
2018-07-25T18:28:09.552Z,2.70
2018-07-25T18:30:39.590Z,2.92
2018-07-25T18:33:09.852Z,2.80
2018-07-25T18:35:40.005Z,3.10
2018-07-25T18:38:09.778Z,3.05
2018-07-25T18:40:39.997Z,3.22
2018-07-25T18:43:10.168Z,2.80
2018-07-25T18:45:40.279Z,3.17
2018-07-25T18:48:10.496Z,2.90
2018-07-25T18:50:40.619Z,2.92
2018-07-25T18:53:10.765Z,2.98
2018-07-25T18:55:40.438Z,3.15
2018-07-25T18:58:10.637Z,3.17
2018-07-25T19:00:43.469Z,3.37
2018-07-25T19:03:14.214Z,3.00
2018-07-25T19:05:44.284Z,2.87
2018-07-25T19:08:14.402Z,2.85
2018-07-25T19:10:44.509Z,2.85
2018-07-25T19:13:19.694Z,2.83
2018-07-25T19:15:49.767Z,2.60
2018-07-25T19:18:19.925Z,2.90
2018-07-25T19:20:50.089Z,2.60
2018-07-25T19:23:20.382Z,2.40
2018-07-25T19:25:50.494Z,2.45
2018-07-25T19:28:20.971Z,2.73
2018-07-25T19:30:51.013Z,2.30
2018-07-25T19:33:21.293Z,2.50
2018-07-25T19:35:51.388Z,2.35
2018-07-25T19:38:21.659Z,2.20
2018-07-25T19:40:51.934Z,2.22
2018-07-25T19:43:21.715Z,2.40
2018-07-25T19:45:52.242Z,2.37
2018-07-25T19:48:22.590Z,2.47
2018-07-25T19:50:52.706Z,2.30
2018-07-25T19:53:22.864Z,2.52
2018-07-25T19:55:52.928Z,2.90
2018-07-25T19:58:23.017Z,2.90
2018-07-25T20:00:53.205Z,2.75
2018-07-25T20:03:23.654Z,2.50
2018-07-25T20:05:53.904Z,2.70
2018-07-25T20:08:23.988Z,2.70
2018-07-25T20:10:53.734Z,2.80
2018-07-25T20:13:23.862Z,2.80
2018-07-25T20:15:59.345Z,3.02
2018-07-25T20:18:30.398Z,2.77
2018-07-25T20:21:00.585Z,2.90
2018-07-25T20:23:30.774Z,3.30
2018-07-25T20:26:00.850Z,2.83
2018-07-25T20:28:30.955Z,2.90
2018-07-25T20:31:01.880Z,2.70
2018-07-25T20:33:31.990Z,2.80
2018-07-25T20:36:02.134Z,2.80
2018-07-25T20:38:32.242Z,2.65
2018-07-25T20:41:02.390Z,2.52
2018-07-25T20:43:32.537Z,2.95
2018-07-25T20:46:02.633Z,3.02
2018-07-25T20:48:34.282Z,2.95
2018-07-25T20:51:04.736Z,3.00
2018-07-25T20:53:35.070Z,3.25
2018-07-25T20:56:05.442Z,3.27
2018-07-25T20:58:35.819Z,3.22
2018-07-25T21:01:06.261Z,3.20
2018-07-25T21:03:36.627Z,3.20
2018-07-25T21:06:06.945Z,3.10
2018-07-25T21:08:37.361Z,2.83
2018-07-25T21:11:07.679Z,3.20
2018-07-25T21:13:38.093Z,2.62
2018-07-25T21:16:08.502Z,2.95
2018-07-25T21:18:38.803Z,2.70
2018-07-25T21:21:09.378Z,2.58
2018-07-25T21:23:39.772Z,2.80
2018-07-25T21:26:09.674Z,2.70
2018-07-25T21:28:40.036Z,2.80
2018-07-25T21:31:10.291Z,2.47
2018-07-25T21:33:40.614Z,2.60
2018-07-25T21:36:10.991Z,2.55
2018-07-25T21:38:41.368Z,3.20
2018-07-25T21:41:11.653Z,3.50
2018-07-25T21:43:41.929Z,7.05
2018-07-25T21:46:12.261Z,10.45
2018-07-25T21:48:42.523Z,10.03
2018-07-25T21:51:12.790Z,9.05
2018-07-25T21:53:43.085Z,7.55
2018-07-25T21:56:13.022Z,5.17
2018-07-25T21:58:43.420Z,4.58
2018-07-25T22:01:17.648Z,3.90
2018-07-25T22:03:48.039Z,3.83
2018-07-25T22:06:19.143Z,3.12
2018-07-25T22:08:48.795Z,2.70
2018-07-25T22:11:18.869Z,2.40
2018-07-25T22:13:54.109Z,2.40
2018-07-25T22:16:25.148Z,2.25
2018-07-25T22:18:55.565Z,2.50
2018-07-25T22:21:25.647Z,2.80
2018-07-25T22:23:55.731Z,2.50
2018-07-25T22:26:25.778Z,2.40
2018-07-25T22:28:56.832Z,2.47
2018-07-25T22:31:26.994Z,2.40
2018-07-25T22:33:57.017Z,2.80
2018-07-25T22:36:27.938Z,2.60
2018-07-25T22:38:57.994Z,2.90
2018-07-25T22:41:28.137Z,3.37
2018-07-25T22:43:57.797Z,4.17
2018-07-25T22:46:27.935Z,5.30
2018-07-25T22:48:58.031Z,5.80
2018-07-25T22:51:28.251Z,6.10
2018-07-25T22:53:58.388Z,5.60
2018-07-25T22:56:28.506Z,4.90
2018-07-25T22:58:59.111Z,4.20
2018-07-25T23:01:29.253Z,3.70
2018-07-25T23:03:59.365Z,3.30
2018-07-25T23:06:29.538Z,2.92
2018-07-25T23:08:59.665Z,2.42
2018-07-25T23:11:29.787Z,2.70
2018-07-25T23:13:59.895Z,2.30
2018-07-25T23:16:30.056Z,2.30
2018-07-25T23:19:00.121Z,2.35
2018-07-25T23:21:30.288Z,2.40
2018-07-25T23:24:00.397Z,2.17
2018-07-25T23:26:30.563Z,2.30
2018-07-25T23:29:00.616Z,2.20
2018-07-25T23:31:30.722Z,2.15
2018-07-25T23:34:00.784Z,2.50
2018-07-25T23:36:30.930Z,2.30
2018-07-25T23:39:00.629Z,2.08
2018-07-25T23:41:30.743Z,2.20
2018-07-25T23:44:00.836Z,2.10
2018-07-25T23:46:31.003Z,2.17
2018-07-25T23:49:01.053Z,2.10
2018-07-25T23:51:31.252Z,2.10
2018-07-25T23:54:01.412Z,2.00
2018-07-25T23:56:31.616Z,2.12
2018-07-25T23:59:01.731Z,2.03
